Time;durP1;ratioP1;P1;durP2;ratioP2;P2;SDS_P1;SDS_P2;PMS_P1;PMS_P2;Temp;Humidity;BMP_temperature;BMP_pressure;BME280_temperature;BME280_humidity;BME280_pressure;Samples;Min_cycle;Max_cycle;Signal;HPM_P1;HPM_P2
2021/07/30 00:01:11;;;;;;;4.03;2.55;;;;;;;22.73;56.00;99578.44;4477636;31;34614;-81
2021/07/30 00:03:39;;;;;;;4.25;3.42;;;;;;;22.49;56.97;99578.97;4484195;31;34790;-82
2021/07/30 00:06:24;;;;;;;3.83;2.70;;;;;;;22.49;57.03;99584.34;4486119;31;33019;-82
2021/07/30 00:08:52;;;;;;;3.40;2.70;;;;;;;22.42;57.28;99583.28;4481064;31;32753;-81
2021/07/30 00:11:20;;;;;;;3.75;2.62;;;;;;;22.26;58.19;99588.41;4472680;31;34099;-82
2021/07/30 00:13:47;;;;;;;4.55;2.30;;;;;;;22.28;58.03;99588.28;4486584;31;33841;-81
2021/07/30 00:16:16;;;;;;;2.90;2.50;;;;;;;22.33;57.84;99588.69;4487531;31;33430;-81
2021/07/30 00:18:44;;;;;;;2.97;2.65;;;;;;;22.35;57.69;99584.00;4476820;32;34001;-82
2021/07/30 00:21:11;;;;;;;3.15;2.85;;;;;;;22.36;57.97;99588.38;4483804;32;34888;-82
2021/07/30 00:23:39;;;;;;;2.53;2.33;;;;;;;22.21;58.34;99586.16;4484685;31;33854;-82
2021/07/30 00:26:07;;;;;;;4.15;2.67;;;;;;;22.20;57.95;99583.63;4480737;31;33312;-81
2021/07/30 00:28:34;;;;;;;2.75;2.40;;;;;;;22.31;57.64;99574.53;4484397;31;33888;-81
2021/07/30 00:31:07;;;;;;;3.83;2.67;;;;;;;22.21;57.77;99586.16;4473727;31;33244;-81
2021/07/30 00:33:35;;;;;;;2.90;2.50;;;;;;;22.19;57.91;99587.31;4482771;32;33280;-82
2021/07/30 00:36:03;;;;;;;6.68;3.33;;;;;;;22.22;57.49;99587.03;4482985;32;32791;-81
2021/07/30 00:38:31;;;;;;;5.78;2.70;;;;;;;22.23;57.37;99584.19;4484628;31;33317;-81
2021/07/30 00:41:00;;;;;;;3.92;2.70;;;;;;;22.16;57.58;99584.91;4485655;31;33732;-81
2021/07/30 00:43:28;;;;;;;5.62;2.62;;;;;;;22.12;57.92;99592.41;4493269;31;33536;-81
2021/07/30 00:45:56;;;;;;;5.00;2.70;;;;;;;22.20;57.57;99597.91;4471131;32;33014;-81
2021/07/30 00:48:25;;;;;;;2.92;2.47;;;;;;;22.10;57.54;99597.06;4484099;31;33947;-81
2021/07/30 00:50:53;;;;;;;3.35;2.40;;;;;;;22.17;57.36;99589.28;4483823;31;33779;-81
2021/07/30 00:53:20;;;;;;;3.47;2.40;;;;;;;22.16;57.49;99585.75;4483502;32;33798;-81
2021/07/30 00:55:48;;;;;;;5.45;2.42;;;;;;;22.08;57.72;99590.16;4481269;31;33857;-82
2021/07/30 00:58:16;;;;;;;3.30;2.30;;;;;;;22.17;57.34;99590.16;4486559;31;33666;-81
2021/07/30 01:00:44;;;;;;;3.78;2.75;;;;;;;21.71;58.90;99591.78;4470794;32;33571;-81
2021/07/30 01:03:12;;;;;;;4.68;2.92;;;;;;;21.80;58.79;99586.53;4473901;32;32758;-80
2021/07/30 01:05:40;;;;;;;2.87;2.20;;;;;;;21.91;58.40;99589.06;4491824;31;34106;-80
2021/07/30 01:08:11;;;;;;;4.65;2.62;;;;;;;21.83;58.73;99591.59;4471603;32;33768;-81
2021/07/30 01:10:39;;;;;;;4.72;2.47;;;;;;;21.90;58.37;99582.00;4485038;32;34028;-81
2021/07/30 01:13:07;;;;;;;6.60;3.08;;;;;;;21.93;58.41;99587.94;4487716;31;32760;-81
2021/07/30 01:15:34;;;;;;;3.47;2.53;;;;;;;21.86;58.47;99578.72;4483587;31;33515;-81
2021/07/30 01:18:02;;;;;;;3.37;2.80;;;;;;;21.83;58.47;99578.16;4472660;32;33831;-82
2021/07/30 01:20:30;;;;;;;4.18;2.35;;;;;;;21.85;58.35;99584.25;4485305;32;34128;-81
2021/07/30 01:22:59;;;;;;;3.15;2.37;;;;;;;21.71;58.92;99578.34;4468722;31;31859;-81
2021/07/30 01:25:28;;;;;;;2.95;2.67;;;;;;;21.79;58.37;99577.62;4487816;31;34090;-82
2021/07/30 01:27:56;;;;;;;2.70;2.15;;;;;;;21.79;58.52;99571.38;4472957;31;34889;-81
2021/07/30 01:30:25;;;;;;;2.90;2.35;;;;;;;21.78;58.56;99573.22;4488780;31;33747;-81
2021/07/30 01:32:52;;;;;;;4.30;2.62;;;;;;;21.82;58.31;99573.78;4488276;31;33420;-82
2021/07/30 01:35:20;;;;;;;2.65;1.92;;;;;;;21.66;59.13;99567.19;4478889;31;34395;-82
2021/07/30 01:37:48;;;;;;;3.22;2.28;;;;;;;21.54;59.61;99565.63;4472142;32;33875;-82
2021/07/30 01:40:21;;;;;;;4.05;2.78;;;;;;;21.46;60.18;99568.19;4484939;32;34968;-82
2021/07/30 01:42:48;;;;;;;7.10;3.65;;;;;;;21.60;59.62;99561.50;4472489;32;33434;-81
2021/07/30 01:45:16;;;;;;;3.20;2.45;;;;;;;21.61;59.79;99561.38;4486055;31;34157;-82
2021/07/30 01:47:43;;;;;;;3.15;2.50;;;;;;;21.47;60.15;99561.81;4490732;31;34638;-82
2021/07/30 01:50:11;;;;;;;3.58;2.72;;;;;;;21.51;60.05;99562.38;4490951;31;34127;-82
2021/07/30 01:52:39;;;;;;;3.10;2.55;;;;;;;21.67;59.27;99563.50;4486256;31;33503;-83
2021/07/30 01:55:07;;;;;;;3.90;2.92;;;;;;;21.51;59.80;99559.69;4484921;31;33075;-83
2021/07/30 01:57:35;;;;;;;3.87;2.55;;;;;;;21.54;59.55;99562.94;4473999;31;32839;-83
2021/07/30 02:00:03;;;;;;;2.87;2.40;;;;;;;21.51;59.59;99554.31;4489720;31;34729;-82
2021/07/30 02:02:39;;;;;;;5.45;3.05;;;;;;;21.56;59.41;99562.81;4486864;31;34594;-82
2021/07/30 02:05:08;;;;;;;3.58;2.65;;;;;;;21.56;59.22;99562.81;4464305;32;32578;-82
2021/07/30 02:07:37;;;;;;;2.95;2.20;;;;;;;21.45;59.69;99563.78;4479197;31;33884;-82
2021/07/30 02:10:06;;;;;;;3.83;2.78;;;;;;;21.60;59.11;99557.00;4478489;32;34496;-82
2021/07/30 02:15:20;;;;;;;5.68;2.97;;;;;;;21.26;60.65;99555.69;4495221;31;33059;-82
2021/07/30 02:17:48;;;;;;;4.93;2.58;;;;;;;21.22;60.89;99561.38;4478016;31;33518;-82
2021/07/30 02:20:15;;;;;;;3.28;2.75;;;;;;;21.28;60.39;99564.47;4484485;32;33979;-82
2021/07/30 02:22:43;;;;;;;3.75;2.53;;;;;;;21.17;61.04;99562.75;4471976;32;33830;-82
2021/07/30 02:25:11;;;;;;;4.28;2.80;;;;;;;21.16;60.94;99559.22;4485225;32;33667;-82
2021/07/30 02:27:38;;;;;;;4.57;2.47;;;;;;;21.21;60.70;99559.66;4474285;31;33126;-81
2021/07/30 02:30:06;;;;;;;8.40;2.90;;;;;;;21.27;60.33;99563.62;4481014;31;33474;-81
2021/07/30 02:32:34;;;;;;;2.60;2.28;;;;;;;21.35;59.91;99563.78;4477898;31;32601;-80
2021/07/30 02:35:02;;;;;;;3.42;3.08;;;;;;;21.35;59.66;99561.09;4472073;31;33617;-80
2021/07/30 02:37:30;;;;;;;3.95;2.97;;;;;;;21.26;60.11;99555.69;4485778;31;33993;-81
2021/07/30 02:39:58;;;;;;;4.20;3.10;;;;;;;21.29;59.89;99558.97;4480830;31;34505;-81
2021/07/30 02:42:25;;;;;;;3.85;3.25;;;;;;;21.23;60.08;99557.69;4472462;32;33246;-80
2021/07/30 02:44:53;;;;;;;4.97;2.92;;;;;;;21.32;59.69;99565.94;4473126;31;33852;-81
2021/07/30 02:47:20;;;;;;;5.55;2.70;;;;;;;21.33;59.55;99556.88;4491459;31;33869;-81
2021/07/30 02:49:48;;;;;;;3.30;2.65;;;;;;;21.33;59.48;99562.25;4474468;31;33871;-81
2021/07/30 02:52:15;;;;;;;3.35;2.70;;;;;;;21.27;59.63;99563.62;4480837;31;33728;-81
2021/07/30 02:54:43;;;;;;;2.90;2.20;;;;;;;21.26;59.65;99572.66;4464756;32;32755;-81
2021/07/30 02:57:10;;;;;;;4.72;2.58;;;;;;;21.24;59.85;99566.59;4476848;31;32796;-81
2021/07/30 02:59:38;;;;;;;3.70;2.35;;;;;;;21.14;60.33;99569.28;4474992;31;32938;-81
2021/07/30 03:02:06;;;;;;;3.15;2.60;;;;;;;21.09;60.69;99560.78;4482039;32;32459;-81
2021/07/30 03:04:33;;;;;;;4.35;3.28;;;;;;;20.96;61.04;99565.56;4459400;32;32240;-81
2021/07/30 03:07:01;;;;;;;4.60;2.90;;;;;;;21.07;60.54;99562.75;4491408;31;33912;-81
2021/07/30 03:09:29;;;;;;;4.30;2.62;;;;;;;21.14;60.29;99563.91;4468336;31;33559;-81
2021/07/30 03:11:57;;;;;;;4.57;2.55;;;;;;;21.00;60.92;99567.00;4484166;31;33727;-81
2021/07/30 03:14:25;;;;;;;3.95;2.97;;;;;;;21.07;60.67;99573.50;4480169;31;32232;-81
2021/07/30 03:16:53;;;;;;;6.28;2.80;;;;;;;21.05;60.59;99578.16;4484551;31;33237;-81
2021/07/30 03:19:20;;;;;;;5.45;2.70;;;;;;;21.01;60.47;99578.56;4487136;31;34057;-81
2021/07/30 03:21:48;;;;;;;3.22;2.70;;;;;;;20.96;60.66;99581.69;4471828;32;32850;-82
2021/07/30 03:24:15;;;;;;;3.75;2.72;;;;;;;20.88;61.08;99579.66;4484553;32;33314;-81
2021/07/30 03:26:43;;;;;;;4.47;3.00;;;;;;;20.83;61.30;99575.72;4484463;32;34447;-81
2021/07/30 03:29:11;;;;;;;7.05;3.12;;;;;;;20.78;61.68;99575.28;4483717;32;34143;-81
2021/07/30 03:31:38;;;;;;;4.00;2.62;;;;;;;20.89;61.06;99577.88;4471364;32;34339;-81
2021/07/30 03:34:08;;;;;;;7.40;3.20;;;;;;;20.97;60.86;99584.22;4484651;32;34047;-81
2021/07/30 03:36:36;;;;;;;4.55;3.03;;;;;;;20.99;60.76;99581.41;4471266;32;34175;-81
2021/07/30 03:39:04;;;;;;;3.83;3.00;;;;;;;21.06;60.38;99582.53;4471113;31;33884;-81
2021/07/30 03:41:31;;;;;;;4.87;3.37;;;;;;;21.00;60.39;99585.78;4473525;31;34951;-82
2021/07/30 03:43:59;;;;;;;3.67;2.72;;;;;;;21.06;60.15;99587.91;4471684;31;32829;-81
2021/07/30 03:46:26;;;;;;;6.90;2.47;;;;;;;21.00;60.19;99579.56;4496360;31;34330;-83
2021/07/30 03:48:54;;;;;;;3.12;2.70;;;;;;;20.96;60.74;99587.88;4485100;31;34092;-82
2021/07/30 03:51:22;;;;;;;5.60;3.08;;;;;;;20.77;61.49;99577.13;4475158;31;32979;-82
2021/07/30 03:53:49;;;;;;;4.53;3.42;;;;;;;20.88;61.53;99589.56;4474523;31;33380;-82
2021/07/30 03:56:17;;;;;;;4.03;2.95;;;;;;;20.96;61.51;99587.03;4472210;31;32928;-82
2021/07/30 03:58:46;;;;;;;6.43;3.17;;;;;;;21.07;61.11;99586.91;4476695;31;33375;-81
2021/07/30 04:01:14;;;;;;;6.47;2.90;;;;;;;21.19;60.79;99593.88;4473347;31;33440;-81
2021/07/30 04:03:45;;;;;;;4.15;3.67;;;;;;;21.47;59.83;99586.00;4472776;31;32471;-81
2021/07/30 04:06:12;;;;;;;5.45;2.90;;;;;;;21.39;60.41;99588.53;4477790;32;32776;-81
2021/07/30 04:08:40;;;;;;;5.10;3.10;;;;;;;21.44;60.76;99583.59;4476073;31;34593;-81
2021/07/30 04:11:09;;;;;;;4.93;3.50;;;;;;;21.52;60.32;99582.87;4485085;31;34648;-81
2021/07/30 04:13:36;;;;;;;5.22;3.47;;;;;;;21.70;60.03;99579.34;4465080;31;32408;-81
2021/07/30 04:16:05;;;;;;;7.87;3.20;;;;;;;21.61;60.12;99580.19;4484745;31;34851;-80
2021/07/30 04:18:34;;;;;;;4.68;3.33;;;;;;;21.91;59.39;99583.69;4470773;32;34194;-80
2021/07/30 04:21:06;;;;;;;4.90;3.03;;;;;;;21.87;59.58;99580.41;4487995;31;34287;-81
2021/07/30 04:23:34;;;;;;;3.37;2.60;;;;;;;22.13;58.90;99586.06;4475978;31;32347;-81
2021/07/30 04:26:02;;;;;;;4.85;3.20;;;;;;;22.06;59.59;99582.22;4472154;32;33674;-82
2021/07/30 04:28:30;;;;;;;6.37;2.87;;;;;;;22.29;59.07;99574.69;4490229;31;33993;-82
2021/07/30 04:31:02;;;;;;;3.80;2.97;;;;;;;22.39;58.98;99577.34;4474936;31;33400;-82
2021/07/30 04:33:32;;;;;;;4.82;3.47;;;;;;;22.61;58.37;99584.19;4471247;32;33223;-81
2021/07/30 04:36:05;;;;;;;4.50;3.37;;;;;;;22.66;57.91;99579.19;4476179;31;34260;-81
2021/07/30 04:38:33;;;;;;;6.62;2.80;;;;;;;22.70;57.91;99586.81;4485244;31;33975;-80
2021/07/30 04:41:04;;;;;;;7.07;3.33;;;;;;;22.85;58.03;99580.94;4486400;31;33923;-81
2021/07/30 04:43:33;;;;;;;3.53;3.10;;;;;;;22.81;57.85;99577.69;4485675;32;33345;-80
2021/07/30 04:46:00;;;;;;;5.93;3.00;;;;;;;23.13;56.54;99574.53;4484984;31;34169;-81
2021/07/30 04:48:28;;;;;;;3.35;2.58;;;;;;;23.07;57.29;99575.13;4479908;31;33242;-80
2021/07/30 04:50:56;;;;;;;8.25;3.00;;;;;;;23.31;56.43;99568.28;4485956;31;34566;-81
2021/07/30 04:53:23;;;;;;;4.43;2.70;;;;;;;23.50;55.86;99574.41;4487400;31;33006;-80
2021/07/30 04:55:51;;;;;;;7.60;3.78;;;;;;;23.58;55.50;99570.91;4462346;31;34383;-80
2021/07/30 04:58:20;;;;;;;4.78;2.75;;;;;;;23.70;55.44;99569.69;4488133;31;34808;-80
2021/07/30 05:00:48;;;;;;;4.05;3.00;;;;;;;23.63;55.40;99563.19;4475627;31;34766;-80
2021/07/30 05:03:15;;;;;;;5.25;3.55;;;;;;;23.70;54.39;99561.63;4484936;32;34138;-80
2021/07/30 05:05:43;;;;;;;4.70;3.17;;;;;;;23.82;53.76;99564.03;4486503;31;33920;-80
2021/07/30 05:08:11;;;;;;;5.75;3.12;;;;;;;23.95;53.75;99567.19;4480920;31;34480;-80
2021/07/30 05:10:38;;;;;;;5.62;3.22;;;;;;;24.09;53.31;99563.91;4485557;31;34497;-80
2021/07/30 05:13:06;;;;;;;5.93;2.90;;;;;;;24.35;53.24;99557.63;4478800;31;32163;-80
2021/07/30 05:15:34;;;;;;;6.30;3.53;;;;;;;24.42;52.94;99559.56;4492298;31;34017;-80
2021/07/30 05:18:01;;;;;;;4.95;3.35;;;;;;;24.65;52.30;99565.22;4472036;31;34020;-80
2021/07/30 05:20:29;;;;;;;4.50;3.40;;;;;;;24.87;53.33;99554.81;4488199;31;33793;-80
2021/07/30 05:22:57;;;;;;;3.75;2.83;;;;;;;24.83;52.70;99556.16;4484887;32;33485;-81
2021/07/30 05:25:24;;;;;;;4.47;3.37;;;;;;;24.69;53.05;99555.78;4466323;31;33602;-81
2021/07/30 05:27:52;;;;;;;5.75;3.25;;;;;;;25.00;52.96;99566.00;4489296;31;34961;-80
2021/07/30 05:30:21;;;;;;;5.60;3.17;;;;;;;24.98;52.29;99562.62;4478621;32;32812;-80
2021/07/30 05:32:49;;;;;;;3.37;2.90;;;;;;;25.06;51.61;99559.91;4494352;31;32404;-81
2021/07/30 05:35:17;;;;;;;4.20;2.67;;;;;;;25.38;51.74;99563.72;4490906;31;33833;-81
2021/07/30 05:37:44;;;;;;;4.10;3.05;;;;;;;25.72;50.72;99550.87;4478706;31;34046;-81
2021/07/30 05:40:12;;;;;;;5.32;3.33;;;;;;;25.77;51.13;99551.22;4473970;32;34602;-81
2021/07/30 05:42:40;;;;;;;4.70;3.08;;;;;;;25.89;49.84;99553.59;4485843;31;33020;-81
2021/07/30 05:45:08;;;;;;;8.73;2.70;;;;;;;25.97;50.28;99556.28;4478623;31;33569;-81
2021/07/30 05:47:43;;;;;;;4.03;3.28;;;;;;;26.00;49.59;99558.66;4491643;31;34061;-81
2021/07/30 05:50:11;;;;;;;6.97;3.75;;;;;;;26.11;49.34;99555.59;4485069;31;34688;-81
2021/07/30 05:52:39;;;;;;;3.47;2.72;;;;;;;26.14;49.80;99557.09;4464389;32;32331;-81
2021/07/30 05:55:07;;;;;;;5.47;3.25;;;;;;;26.16;49.30;99553.22;4462485;32;33264;-81
2021/07/30 05:57:35;;;;;;;7.37;3.00;;;;;;;26.38;48.48;99542.63;4478332;31;34782;-82
2021/07/30 06:00:06;;;;;;;8.68;2.85;;;;;;;26.50;48.59;99552.13;4481967;31;33683;-81
2021/07/30 06:02:37;;;;;;;5.22;2.42;;;;;;;26.63;49.21;99546.94;4488943;31;33671;-82
2021/07/30 06:05:06;;;;;;;6.18;2.72;;;;;;;26.76;49.33;99558.06;4483916;31;34131;-82
2021/07/30 06:07:34;;;;;;;2.67;2.37;;;;;;;26.84;48.42;99556.34;4485733;31;33278;-82
2021/07/30 06:10:04;;;;;;;2.95;2.65;;;;;;;26.96;49.00;99552.19;4487848;31;33894;-82
2021/07/30 06:12:47;;;;;;;4.03;2.67;;;;;;;27.06;49.64;99555.53;4467939;31;33808;-83
2021/07/30 06:15:29;;;;;;;3.28;2.15;;;;;;;27.03;45.10;99548.59;4487950;31;34058;-83
2021/07/30 06:18:18;;;;;;;4.28;2.50;;;;;;;27.21;45.38;99550.22;4472634;31;34447;-84
2021/07/30 06:20:46;;;;;;;3.30;2.20;;;;;;;27.55;43.58;99547.09;4475966;31;33953;-83
2021/07/30 06:23:14;;;;;;;6.78;3.30;;;;;;;27.60;45.41;99560.09;4488175;31;33065;-84
2021/07/30 06:25:41;;;;;;;3.60;2.60;;;;;;;27.92;43.89;99553.56;4472764;31;33024;-84
2021/07/30 06:28:09;;;;;;;3.72;2.40;;;;;;;28.20;43.28;99551.03;4488064;31;33701;-83
2021/07/30 06:30:37;;;;;;;2.80;2.42;;;;;;;28.68;40.90;99548.81;4487291;31;33819;-84
2021/07/30 06:33:09;;;;;;;5.25;2.65;;;;;;;28.41;41.92;99553.06;4480226;31;33403;-84
2021/07/30 06:35:37;;;;;;;3.87;2.55;;;;;;;28.78;39.98;99549.34;4477349;31;33418;-83
2021/07/30 06:38:07;;;;;;;4.40;2.12;;;;;;;28.52;40.24;99552.56;4492036;31;34386;-82
2021/07/30 06:40:34;;;;;;;5.45;2.47;;;;;;;28.80;41.60;99545.41;4477157;31;33771;-85
2021/07/30 06:43:02;;;;;;;6.12;3.10;;;;;;;29.09;40.90;99549.09;4465487;31;33458;-85
2021/07/30 06:45:30;;;;;;;2.92;2.20;;;;;;;29.12;39.70;99551.44;4472853;31;33604;-82
2021/07/30 06:47:57;;;;;;;4.93;2.45;;;;;;;29.14;39.99;99545.81;4495216;31;33278;-82
2021/07/30 06:50:25;;;;;;;3.40;2.72;;;;;;;29.45;39.63;99545.50;4467795;31;33723;-83
2021/07/30 06:52:53;;;;;;;5.07;2.75;;;;;;;29.67;40.49;99546.34;4471948;31;33083;-83
2021/07/30 06:55:20;;;;;;;5.20;2.37;;;;;;;30.05;37.96;99541.38;4485718;31;33866;-82
2021/07/30 06:57:48;;;;;;;2.95;2.05;;;;;;;30.04;38.60;99546.00;4484355;31;33947;-83
2021/07/30 07:00:16;;;;;;;3.53;2.70;;;;;;;29.93;38.97;99548.44;4485802;31;35103;-83
2021/07/30 07:02:43;;;;;;;6.10;2.20;;;;;;;30.14;39.29;99545.66;4471903;31;33954;-85
2021/07/30 07:05:12;;;;;;;2.80;2.42;;;;;;;30.00;39.27;99539.25;4471357;31;35214;-84
2021/07/30 07:07:39;;;;;;;2.92;1.92;;;;;;;30.10;38.55;99538.94;4474753;31;35592;-82
2021/07/30 07:10:07;;;;;;;9.13;2.95;;;;;;;29.90;39.44;99532.50;4476339;31;33765;-82
2021/07/30 07:12:37;;;;;;;4.50;2.60;;;;;;;30.20;38.00;99534.00;4472818;31;33750;-82
2021/07/30 07:15:05;;;;;;;4.05;2.30;;;;;;;30.81;36.53;99525.94;4484935;31;32822;-82
2021/07/30 07:17:33;;;;;;;3.28;2.40;;;;;;;31.02;37.33;99526.81;4482112;31;33736;-82
2021/07/30 07:20:01;;;;;;;6.95;2.62;;;;;;;30.85;36.99;99532.62;4485366;31;33345;-82
2021/07/30 07:22:30;;;;;;;3.85;2.62;;;;;;;30.71;38.12;99536.34;4485495;31;33129;-82
2021/07/30 07:24:58;;;;;;;3.55;2.45;;;;;;;31.25;37.01;99526.44;4472145;31;34781;-82
2021/07/30 07:27:26;;;;;;;5.70;3.08;;;;;;;31.12;35.72;99527.25;4472465;31;33996;-82
2021/07/30 07:29:53;;;;;;;3.20;2.40;;;;;;;31.30;36.03;99526.69;4469676;31;32823;-82
2021/07/30 07:32:21;;;;;;;3.15;2.65;;;;;;;31.21;33.56;99528.75;4476835;31;33983;-82
2021/07/30 07:34:51;;;;;;;3.87;2.08;;;;;;;31.53;32.12;99523.56;4472619;31;33022;-82
2021/07/30 07:37:19;;;;;;;6.57;2.30;;;;;;;31.30;32.57;99526.69;4483330;31;34148;-82
2021/07/30 07:39:46;;;;;;;3.80;2.22;;;;;;;31.60;33.00;99530.69;4484784;31;33726;-82
2021/07/30 07:42:14;;;;;;;2.92;2.12;;;;;;;31.73;31.42;99516.22;4485682;31;33349;-82
2021/07/30 07:44:42;;;;;;;3.22;2.55;;;;;;;31.21;31.46;99526.00;4491337;31;33581;-82
2021/07/30 07:47:09;;;;;;;3.50;2.35;;;;;;;31.37;31.38;99520.19;4484683;31;33297;-84
2021/07/30 07:49:37;;;;;;;2.97;1.80;;;;;;;31.52;30.74;99527.31;4483007;31;33724;-83
2021/07/30 07:52:05;;;;;;;2.53;2.10;;;;;;;31.68;31.23;99516.00;4477603;31;33422;-83
2021/07/30 07:54:53;;;;;;;2.87;1.98;;;;;;;31.48;32.34;99523.38;4472670;31;34485;-85
2021/07/30 07:57:20;;;;;;;3.00;2.28;;;;;;;31.97;31.53;99522.09;4459010;31;32883;-82
2021/07/30 07:59:48;;;;;;;3.28;2.10;;;;;;;32.13;31.00;99518.91;4483770;31;33964;-83
2021/07/30 08:02:16;;;;;;;3.53;2.67;;;;;;;32.12;31.30;99511.75;4485304;31;33960;-83
2021/07/30 08:04:45;;;;;;;4.07;2.35;;;;;;;31.96;31.12;99523.16;4475163;31;33946;-84
2021/07/30 08:07:17;;;;;;;2.55;2.05;;;;;;;31.96;31.25;99524.00;4484399;31;33768;-83
2021/07/30 08:09:45;;;;;;;2.10;1.90;;;;;;;32.16;30.85;99521.22;4476620;31;33378;-84
2021/07/30 08:12:13;;;;;;;4.15;2.25;;;;;;;32.47;29.92;99517.78;4486585;31;32740;-84
2021/07/30 08:14:40;;;;;;;4.05;2.17;;;;;;;32.25;30.22;99511.75;4469904;31;35013;-84
2021/07/30 08:17:09;;;;;;;5.60;2.15;;;;;;;32.77;30.64;99512.63;4488204;31;33783;-84
2021/07/30 08:19:37;;;;;;;2.80;2.28;;;;;;;33.12;30.83;99515.78;4486523;31;33573;-83
2021/07/30 08:22:05;;;;;;;8.30;2.75;;;;;;;33.15;31.93;99517.25;4474019;31;33005;-84
2021/07/30 08:24:33;;;;;;;2.47;2.08;;;;;;;33.02;30.60;99503.66;4473722;31;33972;-84
2021/07/30 08:27:05;;;;;;;2.58;2.30;;;;;;;32.94;32.06;99504.75;4474198;31;34040;-83
2021/07/30 08:29:33;;;;;;;5.22;2.62;;;;;;;32.88;29.48;99503.72;4481768;31;33022;-83
2021/07/30 08:32:01;;;;;;;2.87;2.47;;;;;;;33.15;30.27;99505.50;4496357;31;33680;-84
2021/07/30 08:34:29;;;;;;;6.07;2.75;;;;;;;33.45;30.14;99505.72;4480788;31;34490;-84
2021/07/30 08:36:57;;;;;;;4.97;2.40;;;;;;;33.24;31.01;99505.00;4480890;31;33176;-84
2021/07/30 08:39:24;;;;;;;7.15;3.17;;;;;;;33.48;30.19;99506.09;4492853;31;34708;-84
2021/07/30 08:41:56;;;;;;;5.10;2.95;;;;;;;33.37;30.02;99498.56;4464997;31;33790;-84
2021/07/30 08:44:25;;;;;;;5.55;2.95;;;;;;;33.17;31.83;99497.87;4475639;31;33893;-84
2021/07/30 08:46:52;;;;;;;3.15;2.90;;;;;;;33.22;30.49;99498.06;4485882;31;34851;-81
2021/07/30 08:49:20;;;;;;;3.60;3.20;;;;;;;33.07;30.84;99503.84;4471070;31;34697;-83
2021/07/30 08:52:00;;;;;;;3.70;2.80;;;;;;;33.10;31.56;99506.16;4485420;31;32765;-84
2021/07/30 08:54:28;;;;;;;3.42;2.58;;;;;;;33.13;32.11;99502.94;4472529;31;32817;-84
2021/07/30 08:56:56;;;;;;;4.50;2.67;;;;;;;33.28;30.26;99503.50;4490670;31;34081;-84
2021/07/30 08:59:24;;;;;;;3.45;2.37;;;;;;;33.43;29.89;99503.22;4487381;31;33896;-83
2021/07/30 09:01:53;;;;;;;5.60;3.00;;;;;;;33.39;30.17;99508.25;4461675;31;32387;-83
2021/07/30 09:04:28;;;;;;;4.72;2.70;;;;;;;33.19;30.96;99504.81;4484331;31;33196;-83
2021/07/30 09:06:56;;;;;;;3.17;2.80;;;;;;;33.04;30.43;99502.38;4486087;31;33256;-84
2021/07/30 09:09:24;;;;;;;5.97;2.92;;;;;;;33.42;30.18;99500.63;4484654;31;34661;-84
2021/07/30 09:11:59;;;;;;;4.85;2.80;;;;;;;33.52;30.01;99495.53;4483238;32;32573;-83
2021/07/30 09:14:46;;;;;;;4.28;2.62;;;;;;;33.15;30.88;99506.31;4483777;32;34281;-84
2021/07/30 09:17:14;;;;;;;3.85;2.97;;;;;;;33.58;30.19;99495.50;4483472;32;34878;-84
2021/07/30 09:19:59;;;;;;;7.85;2.85;;;;;;;33.67;29.30;99493.31;4471411;32;34055;-83
2021/07/30 09:22:26;;;;;;;6.00;2.85;;;;;;;33.54;31.00;99477.00;4496494;31;32288;-84
2021/07/30 09:24:58;;;;;;;6.25;2.85;;;;;;;33.69;29.66;99485.69;4484896;31;34296;-84
2021/07/30 09:27:32;;;;;;;3.03;2.28;;;;;;;33.59;29.84;99485.38;4483326;32;34726;-84
2021/07/30 09:30:13;;;;;;;5.35;2.83;;;;;;;33.73;28.57;99477.88;4459561;32;34226;-83
2021/07/30 09:32:42;;;;;;;3.50;2.65;;;;;;;33.21;29.29;99483.53;4473688;31;32388;-84
2021/07/30 09:35:10;;;;;;;2.90;2.58;;;;;;;33.71;28.95;99472.63;4487059;31;32823;-84
2021/07/30 09:37:38;;;;;;;5.22;3.40;;;;;;;34.27;31.07;99468.88;4482203;31;34144;-84
2021/07/30 09:40:18;;;;;;;3.90;2.12;;;;;;;33.98;30.15;99470.47;4487480;31;32655;-84
2021/07/30 09:42:46;;;;;;;5.07;2.65;;;;;;;33.91;29.48;99466.13;4486093;31;33836;-84
2021/07/30 09:45:14;;;;;;;2.70;2.40;;;;;;;33.78;29.58;99476.13;4490552;31;34596;-83
2021/07/30 09:47:51;;;;;;;8.85;2.80;;;;;;;33.55;29.54;99470.44;4485460;32;34008;-84
2021/07/30 09:50:20;;;;;;;3.10;2.40;;;;;;;34.14;29.68;99461.66;4493907;31;34483;-84
2021/07/30 09:52:51;;;;;;;6.65;3.22;;;;;;;34.34;29.54;99452.37;4500798;31;32801;-84
2021/07/30 09:55:21;;;;;;;4.97;2.40;;;;;;;35.00;26.43;99445.19;4501178;31;33143;-84
2021/07/30 09:57:51;;;;;;;3.10;2.65;;;;;;;34.72;26.08;99445.78;4488486;31;33069;-83
2021/07/30 10:00:20;;;;;;;5.40;2.90;;;;;;;34.46;27.68;99439.56;4475267;31;32836;-83
2021/07/30 10:02:48;;;;;;;3.95;2.83;;;;;;;34.23;27.25;99443.03;4487785;31;32731;-83
2021/07/30 10:05:20;;;;;;;;;;;;;;;34.15;27.61;99446.06;4485490;32;32958;-83
2021/07/30 10:07:48;;;;;;;2.85;2.55;;;;;;;34.72;28.93;99441.12;4479412;31;33940;-83
2021/07/30 10:10:20;;;;;;;2.53;2.22;;;;;;;34.92;26.37;99429.03;4472016;32;34117;-83
2021/07/30 10:12:52;;;;;;;2.92;2.42;;;;;;;35.10;27.07;99427.06;4500648;31;34268;-84
2021/07/30 10:15:21;;;;;;;3.25;2.90;;;;;;;34.68;27.54;99434.44;4474437;31;34223;-83
2021/07/30 10:17:56;;;;;;;3.20;2.53;;;;;;;34.88;27.84;99429.47;4482775;32;34605;-83
2021/07/30 10:20:26;;;;;;;7.57;2.85;;;;;;;35.32;26.71;99435.59;4478968;32;33393;-83
2021/07/30 10:23:08;;;;;;;2.45;2.25;;;;;;;35.65;27.73;99424.00;4485452;31;34343;-83
2021/07/30 10:25:37;;;;;;;3.25;2.55;;;;;;;35.63;27.46;99420.69;4479638;31;34456;-83
2021/07/30 10:28:19;;;;;;;3.50;2.37;;;;;;;35.51;26.50;99421.75;4476292;32;33106;-83
2021/07/30 10:31:08;;;;;;;6.40;2.42;;;;;;;35.24;25.57;99422.19;4477925;32;33816;-84
2021/07/30 10:33:38;;;;;;;2.87;2.58;;;;;;;35.17;27.33;99421.47;4479479;31;33369;-84
2021/07/30 10:36:29;;;;;;;4.15;2.60;;;;;;;35.56;27.06;99413.63;4487524;31;34925;-83
2021/07/30 10:39:17;;;;;;;3.00;2.70;;;;;;;35.13;26.90;99423.00;4476097;32;33026;-81
2021/07/30 10:42:09;;;;;;;2.60;2.35;;;;;;;35.58;24.91;99412.34;4482411;31;32814;-83
2021/07/30 10:45:14;;;;;;;6.50;3.10;;;;;;;35.45;26.99;99408.97;4477412;32;33908;-83
2021/07/30 10:47:42;;;;;;;5.97;2.75;;;;;;;35.84;27.08;99400.00;4487050;31;33606;-84
2021/07/30 10:50:48;;;;;;;4.20;3.00;;;;;;;35.23;26.42;99404.06;4464458;31;33193;-83
2021/07/30 10:53:32;;;;;;;3.17;2.50;;;;;;;35.44;25.36;99386.16;4479932;31;33048;-83
2021/07/30 10:56:01;;;;;;;3.58;2.87;;;;;;;36.08;25.98;99387.09;4471788;32;33542;-83
2021/07/30 10:58:40;;;;;;;4.93;2.97;;;;;;;35.82;27.23;99390.34;4465921;31;34122;-84
2021/07/30 11:01:15;;;;;;;3.85;2.55;;;;;;;35.68;27.95;99383.44;4480391;32;33018;-84
2021/07/30 11:03:50;;;;;;;4.57;2.70;;;;;;;35.67;26.90;99382.59;4472114;32;33301;-82
2021/07/30 11:06:37;;;;;;;5.10;2.20;;;;;;;35.89;24.97;99374.53;4484931;32;33655;-82
2021/07/30 11:09:05;;;;;;;2.78;2.33;;;;;;;36.09;27.18;99377.75;4484546;32;33966;-83
2021/07/30 11:11:52;;;;;;;8.35;3.35;;;;;;;36.75;24.85;99374.63;4485176;32;34015;-82
2021/07/30 11:14:29;;;;;;;3.72;2.80;;;;;;;35.83;26.31;99373.59;4472030;32;33911;-82
2021/07/30 11:17:00;;;;;;;4.03;2.62;;;;;;;36.27;26.91;99367.66;4486150;31;32821;-82
2021/07/30 11:19:33;;;;;;;4.68;3.12;;;;;;;36.00;26.39;99370.16;4502089;31;33597;-82
2021/07/30 11:22:05;;;;;;;4.85;2.30;;;;;;;36.41;24.57;99364.34;4473866;31;34496;-82
2021/07/30 11:28:50;;;;;;;3.90;2.15;;;;;;;36.68;24.59;99372.03;4502139;31;34191;-82
2021/07/30 11:31:20;;;;;;;3.12;2.53;;;;;;;36.54;25.02;99370.66;4486016;32;33603;-82
2021/07/30 11:33:48;;;;;;;3.03;2.53;;;;;;;36.32;25.38;99357.59;4485578;31;35147;-82
2021/07/30 11:36:16;;;;;;;3.55;2.12;;;;;;;36.44;25.02;99354.81;4491020;31;33330;-82
2021/07/30 11:38:48;;;;;;;4.40;2.50;;;;;;;36.57;25.43;99354.53;4461648;32;33637;-82
2021/07/30 11:41:16;;;;;;;3.80;3.37;;;;;;;37.30;23.77;99347.22;4462431;31;34342;-82
2021/07/30 11:44:04;;;;;;;5.25;2.72;;;;;;;37.35;24.52;99355.53;4479833;31;33288;-82
2021/07/30 11:46:33;;;;;;;2.75;2.03;;;;;;;37.16;23.57;99345.87;4478344;32;34381;-82
2021/07/30 11:49:02;;;;;;;3.10;2.20;;;;;;;37.35;25.95;99346.44;4471775;32;33410;-82
2021/07/30 11:51:30;;;;;;;7.28;2.78;;;;;;;37.48;23.30;99342.53;4457742;32;32891;-82
2021/07/30 11:53:57;;;;;;;3.15;2.78;;;;;;;37.23;23.81;99346.56;4471666;32;34379;-82